CheckWX is a tool to help pilots better visualize weather data.  It is not intended as a substitute for an official pre-flight weather briefing.

00:21:53 UTC

FOOG TAF
Port Gentil Airport
Port Gentil, Gabon
TAF FOOG 252300Z 2600/2624 16005KT 9999 SCT012 PROB30 TEMPO 2614/2619 TS BKN008 FEW020CB

Mar-26@
00:00 UTC

Mar-26 @ 00:00 UTC

Mar-27@
00:00 UTC

Mar-27 @ 00:00 UTC

TAF FOOG 252300Z 2600/2624 16005KT 9999 SCT012
Wind
  • 160° at 5 KTS
Cloud Levels
  • Scattered at 1,200' AGL

Mar-26@
14:00 UTC

Mar-26 @ 14:00 UTC

Mar-26@
19:00 UTC

Mar-26 @ 19:00 UTC

PROB30 TEMPO 2614/2619 TS BKN008 FEW020CB

Temporary - 30% Likelihood

Temporary - 30% Likelihood during this time.

Conditions
Thunderstorm
Cloud Levels
  • Broken at 800' AGL
  • Few at 2,000' AGL